Time;durP1;ratioP1;P1;durP2;ratioP2;P2;SDS_P1;SDS_P2;PMS_P1;PMS_P2;Temp;Humidity;BMP_temperature;BMP_pressure;BME280_temperature;BME280_humidity;BME280_pressure;Samples;Min_cycle;Max_cycle;Signal;HPM_P1;HPM_P2
2022/04/20 00:00:12;;;;;;;35.58;25.17;;;;;;;0.44;100.00;98820.25;2065751;28;20244;-67
2022/04/20 00:01:14;;;;;;;36.35;24.42;;;;;;;0.41;100.00;98820.69;2065351;28;20647;-68
2022/04/20 00:02:16;;;;;;;35.07;24.50;;;;;;;0.39;100.00;98817.50;2065479;28;20208;-67
2022/04/20 00:03:16;;;;;;;34.55;25.05;;;;;;;0.38;100.00;98821.16;2074128;28;20196;-67
2022/04/20 00:04:20;;;;;;;33.13;24.30;;;;;;;0.37;100.00;98816.94;2074105;28;20184;-67
2022/04/20 00:05:23;;;;;;;35.88;25.15;;;;;;;0.37;100.00;98819.56;2074237;28;20216;-67
2022/04/20 00:06:25;;;;;;;31.80;25.33;;;;;;;0.39;100.00;98819.34;2073497;28;20721;-67
2022/04/20 00:07:26;;;;;;;33.50;25.02;;;;;;;0.39;100.00;98822.75;2074325;28;20242;-67
2022/04/20 00:08:27;;;;;;;37.05;25.30;;;;;;;0.36;100.00;98820.63;2074117;28;20189;-67
2022/04/20 00:09:29;;;;;;;31.57;24.30;;;;;;;0.38;100.00;98821.16;2074444;28;20647;-67
2022/04/20 00:10:31;;;;;;;35.75;25.42;;;;;;;0.38;100.00;98818.53;2074075;28;20251;-67
2022/04/20 00:11:35;;;;;;;33.08;25.35;;;;;;;0.37;100.00;98824.81;2074192;28;20196;-67
2022/04/20 00:12:37;;;;;;;34.58;25.52;;;;;;;0.35;100.00;98824.28;2074149;28;20204;-67
2022/04/20 00:13:39;;;;;;;33.22;24.92;;;;;;;0.35;100.00;98831.31;2065214;28;20204;-67
2022/04/20 00:14:41;;;;;;;39.03;24.73;;;;;;;0.29;100.00;98812.09;2065610;28;20200;-67
2022/04/20 00:15:43;;;;;;;34.55;25.75;;;;;;;0.26;100.00;98820.41;2065340;28;20220;-66
2022/04/20 00:16:44;;;;;;;30.13;25.27;;;;;;;0.25;100.00;98821.44;2065392;28;20193;-67
2022/04/20 00:17:46;;;;;;;37.57;25.70;;;;;;;0.23;100.00;98813.81;2074267;28;20200;-67
2022/04/20 00:18:47;;;;;;;31.15;24.30;;;;;;;0.20;100.00;98818.75;2065297;28;20208;-67
2022/04/20 00:19:49;;;;;;;33.37;25.83;;;;;;;0.21;100.00;98815.09;2065385;28;20670;-67
2022/04/20 00:20:52;;;;;;;37.78;26.10;;;;;;;0.23;100.00;98824.31;2074200;28;20542;-67
2022/04/20 00:21:55;;;;;;;32.70;24.63;;;;;;;0.23;100.00;98818.25;2073638;28;20645;-67
2022/04/20 00:22:56;;;;;;;33.67;24.77;;;;;;;0.22;100.00;98812.22;2074026;28;20203;-67
2022/04/20 00:23:57;;;;;;;39.03;24.93;;;;;;;0.24;100.00;98820.66;2065258;28;20188;-67
2022/04/20 00:24:59;;;;;;;32.42;25.25;;;;;;;0.22;100.00;98821.91;2065515;28;20240;-67
2022/04/20 00:26:03;;;;;;;33.33;24.80;;;;;;;0.19;100.00;98817.94;2073982;28;20200;-67
2022/04/20 00:27:07;;;;;;;32.28;23.90;;;;;;;0.18;100.00;98823.44;2074000;28;20192;-67
2022/04/20 00:28:10;;;;;;;33.58;24.58;;;;;;;0.16;100.00;98818.41;2074000;28;20279;-68
2022/04/20 00:29:15;;;;;;;29.17;24.73;;;;;;;0.18;100.00;98820.81;2064846;28;20251;-68
2022/04/20 00:30:15;;;;;;;33.28;25.65;;;;;;;0.17;100.00;98816.56;2057152;28;20229;-66
2022/04/20 00:31:18;;;;;;;34.13;24.13;;;;;;;0.18;100.00;98820.81;2065599;28;20193;-67
2022/04/20 00:32:20;;;;;;;30.48;23.95;;;;;;;0.16;100.00;98821.03;2065189;28;20204;-67
2022/04/20 00:33:21;;;;;;;33.72;24.45;;;;;;;0.15;100.00;98814.19;2057221;28;20761;-67
2022/04/20 00:34:25;;;;;;;30.92;25.38;;;;;;;0.15;100.00;98819.44;2065437;28;20276;-67
2022/04/20 00:35:28;;;;;;;36.72;25.67;;;;;;;0.15;100.00;98813.38;2074166;28;20249;-67
2022/04/20 00:36:31;;;;;;;32.97;25.10;;;;;;;0.14;100.00;98814.41;2073601;28;20220;-67
2022/04/20 00:37:32;;;;;;;36.08;26.10;;;;;;;0.11;100.00;98812.28;2065114;28;20199;-67
2022/04/20 00:38:34;;;;;;;36.60;26.27;;;;;;;0.10;100.00;98814.09;2057310;28;20576;-67
2022/04/20 00:39:38;;;;;;;32.92;25.33;;;;;;;0.09;100.00;98817.75;2056893;28;20212;-67
2022/04/20 00:40:39;;;;;;;33.35;25.02;;;;;;;0.04;100.00;98809.00;2057402;28;20209;-67
2022/04/20 00:41:43;;;;;;;31.75;25.17;;;;;;;0.06;100.00;98812.97;2056765;28;20225;-67
2022/04/20 00:42:48;;;;;;;33.85;25.55;;;;;;;0.05;100.00;98810.56;2065924;28;20193;-68
2022/04/20 00:43:50;;;;;;;30.98;24.33;;;;;;;0.06;100.00;98822.66;2073948;28;20716;-67
2022/04/20 00:44:52;;;;;;;32.33;24.55;;;;;;;0.06;100.00;98822.66;2064362;28;20212;-67
2022/04/20 00:45:53;;;;;;;34.17;25.75;;;;;;;0.04;100.00;98827.34;2065183;28;20197;-67
2022/04/20 00:46:57;;;;;;;29.38;23.95;;;;;;;0.01;100.00;98823.38;2073497;28;20185;-67
2022/04/20 00:48:00;;;;;;;34.92;25.52;;;;;;;0.02;100.00;98826.78;2074042;28;20188;-67
2022/04/20 00:49:04;;;;;;;33.92;26.65;;;;;;;0.03;100.00;98820.50;2064526;28;20680;-67
2022/04/20 00:50:07;;;;;;;32.67;26.00;;;;;;;0.01;100.00;98825.19;2065125;28;20204;-67
2022/04/20 00:51:10;;;;;;;39.28;26.60;;;;;;;-0.01;100.00;98828.81;2056909;28;20190;-68
2022/04/20 00:52:11;;;;;;;37.63;25.90;;;;;;;0.00;100.00;98829.66;2065457;28;20200;-67
2022/04/20 00:53:13;;;;;;;37.20;26.00;;;;;;;-0.03;100.00;98833.50;2065096;28;20189;-67
2022/04/20 00:54:16;;;;;;;32.30;24.98;;;;;;;-0.01;100.00;98836.69;2065267;28;20656;-67
2022/04/20 00:55:19;;;;;;;35.58;25.95;;;;;;;-0.02;100.00;98842.19;2065050;28;20204;-67
2022/04/20 00:56:21;;;;;;;35.35;25.73;;;;;;;0.00;100.00;98834.91;2057576;28;20201;-68
2022/04/20 00:57:23;;;;;;;33.60;25.85;;;;;;;0.05;100.00;98831.56;2065497;28;20215;-68
2022/04/20 00:58:26;;;;;;;36.45;26.35;;;;;;;0.05;100.00;98832.34;2064786;28;20208;-67
2022/04/20 00:59:30;;;;;;;32.63;25.98;;;;;;;0.10;100.00;98829.84;2057229;28;20712;-66
2022/04/20 01:00:31;;;;;;;36.10;27.15;;;;;;;0.08;100.00;98831.88;2065090;28;20189;-67
2022/04/20 01:01:35;;;;;;;34.08;26.92;;;;;;;0.12;100.00;98838.25;2057069;28;20276;-67
2022/04/20 01:02:36;;;;;;;32.67;26.05;;;;;;;0.12;100.00;98835.66;2057338;28;20208;-67
2022/04/20 01:03:38;;;;;;;33.28;26.25;;;;;;;0.10;100.00;98829.84;2065189;28;20656;-68
2022/04/20 01:05:00;;;;;;;33.15;25.42;;;;;;;0.12;100.00;98833.03;2074029;28;20647;-67
2022/04/20 01:06:40;;;;;;;33.05;26.40;;;;;;;0.11;100.00;98834.06;2073289;28;20702;-67
2022/04/20 01:08:02;;;;;;;31.83;26.20;;;;;;;0.08;100.00;98836.31;2065707;28;20258;-67
2022/04/20 01:09:23;;;;;;;32.70;25.30;;;;;;;0.08;100.00;98831.09;2069576;28;20189;-67
2022/04/20 01:10:52;;;;;;;37.13;26.10;;;;;;;0.09;100.00;98824.81;2059694;28;20618;-67
2022/04/20 01:12:30;;;;;;;34.83;25.33;;;;;;;0.07;100.00;98827.66;2050419;29;20290;-67
2022/04/20 01:13:55;;;;;;;36.60;26.75;;;;;;;0.04;100.00;98825.53;2042362;29;20289;-67
2022/04/20 01:15:06;;;;;;;33.30;26.42;;;;;;;0.03;100.00;98826.56;2054301;28;20213;-67
2022/04/20 01:16:29;;;;;;;34.72;25.80;;;;;;;0.02;100.00;98832.03;2034647;29;20196;-67
2022/04/20 01:18:15;;;;;;;36.03;25.75;;;;;;;-0.02;100.00;98823.81;2058401;28;20193;-68
2022/04/20 01:19:49;;;;;;;30.63;24.27;;;;;;;0.01;100.00;98823.38;2042488;29;20206;-67
2022/04/20 01:21:22;;;;;;;29.73;24.42;;;;;;;0.02;100.00;98821.53;2056312;28;20233;-68
2022/04/20 01:22:49;;;;;;;36.45;26.27;;;;;;;0.01;100.00;98826.00;2064785;28;20208;-67
2022/04/20 01:24:12;;;;;;;38.20;26.27;;;;;;;0.01;100.00;98820.75;2066641;28;20197;-67
2022/04/20 01:25:41;;;;;;;45.83;29.33;;;;;;;0.00;100.00;98813.91;2069334;28;20739;-67
2022/04/20 01:26:55;;;;;;;42.10;28.85;;;;;;;0.01;100.00;98820.75;2066558;28;20251;-68
2022/04/20 01:28:20;;;;;;;39.95;28.95;;;;;;;0.02;100.00;98821.53;2045468;29;20198;-67
2022/04/20 01:29:39;;;;;;;41.75;29.30;;;;;;;0.01;100.00;98818.13;2066640;28;20563;-67
2022/04/20 01:31:00;;;;;;;42.55;29.05;;;;;;;0.03;100.00;98820.50;2061038;28;20288;-67
2022/04/20 01:32:16;;;;;;;42.10;28.83;;;;;;;0.05;100.00;98824.47;2060401;28;20189;-67
2022/04/20 01:33:39;;;;;;;40.42;26.98;;;;;;;0.04;100.00;98820.28;2061081;28;20224;-68
2022/04/20 01:34:40;;;;;;;48.08;30.08;;;;;;;0.04;100.00;98820.28;2066514;28;20201;-67
2022/04/20 01:35:41;;;;;;;45.77;31.30;;;;;;;0.03;100.00;98821.31;2058458;28;20672;-67
2022/04/20 01:36:45;;;;;;;45.08;30.15;;;;;;;0.04;100.00;98822.09;2058108;28;20226;-67
2022/04/20 01:37:49;;;;;;;43.72;29.48;;;;;;;0.05;100.00;98816.63;2058771;28;20719;-67
2022/04/20 01:38:53;;;;;;;47.92;32.45;;;;;;;0.05;100.00;98823.69;2058798;28;20193;-67
2022/04/20 01:39:54;;;;;;;40.28;29.55;;;;;;;0.04;100.00;98816.84;2058726;28;20201;-67
2022/04/20 01:40:56;;;;;;;45.38;30.75;;;;;;;0.04;100.00;98807.16;2058465;28;20190;-68
2022/04/20 01:41:57;;;;;;;43.38;30.00;;;;;;;0.04;100.00;98815.03;2057667;28;20325;-67
2022/04/20 01:42:59;;;;;;;41.95;29.90;;;;;;;0.04;100.00;98815.03;2058423;28;20285;-68
2022/04/20 01:44:02;;;;;;;44.42;31.48;;;;;;;0.00;100.00;98806.06;2058468;28;20216;-67
2022/04/20 01:45:13;;;;;;;41.05;30.00;;;;;;;-0.02;100.00;98813.34;2060045;28;20194;-67
2022/04/20 01:46:34;;;;;;;47.35;30.48;;;;;;;-0.03;100.00;98809.91;2068500;28;20227;-67
2022/04/20 01:48:11;;;;;;;43.90;29.65;;;;;;;-0.04;100.00;98810.16;2058231;28;20190;-67
2022/04/20 01:49:48;;;;;;;47.45;29.95;;;;;;;0.01;100.00;98812.88;2033979;28;20201;-67
2022/04/20 01:52:48;;;;;;;44.05;29.65;;;;;;;-0.07;100.00;98808.81;2065813;28;20207;-67
2022/04/20 01:54:12;;;;;;;40.47;29.92;;;;;;;-0.11;100.00;98807.66;2059636;28;20207;-67
2022/04/20 01:55:26;;;;;;;45.35;29.73;;;;;;;-0.15;100.00;98809.16;2066393;28;20188;-68
2022/04/20 01:56:33;;;;;;;42.38;29.73;;;;;;;-0.17;100.00;98802.56;2067458;28;20630;-67
2022/04/20 01:57:55;;;;;;;43.00;31.02;;;;;;;-0.17;100.00;98808.59;2074617;28;20196;-67
2022/04/20 01:59:16;;;;;;;45.45;31.73;;;;;;;-0.17;100.00;98807.81;2074485;28;20200;-68
2022/04/20 02:00:38;;;;;;;43.38;29.92;;;;;;;-0.17;100.00;98805.97;2066352;28;20200;-67
2022/04/20 02:03:40;;;;;;;56.28;34.40;;;;;;;-0.17;100.00;98805.97;2066443;28;20710;-67
2022/04/20 02:04:44;;;;;;;51.03;32.60;;;;;;;-0.16;100.00;98804.94;2066269;28;20268;-67
2022/04/20 02:05:45;;;;;;;55.95;34.78;;;;;;;-0.13;100.00;98798.44;2066293;28;20208;-67
2022/04/20 02:07:01;;;;;;;49.92;32.78;;;;;;;-0.08;100.00;98801.16;2065915;28;20251;-67
2022/04/20 02:08:08;;;;;;;55.17;35.17;;;;;;;-0.08;100.00;98799.34;2066325;28;20239;-67
2022/04/20 02:09:30;;;;;;;50.92;33.40;;;;;;;-0.04;100.00;98807.53;2069247;28;20188;-67
2022/04/20 02:10:41;;;;;;;53.67;33.80;;;;;;;-0.01;100.00;98805.22;2066301;28;20196;-67
2022/04/20 02:11:42;;;;;;;53.10;32.90;;;;;;;-0.01;100.00;98807.84;2058265;28;20194;-67
2022/04/20 02:13:00;;;;;;;50.83;33.63;;;;;;;0.02;100.00;98809.22;2060186;28;20192;-67
2022/04/20 02:14:10;;;;;;;52.60;33.38;;;;;;;-0.03;100.00;98802.03;2066242;28;20223;-68
2022/04/20 02:15:13;;;;;;;49.55;33.50;;;;;;;0.03;100.00;98807.41;2058341;28;20252;-67
2022/04/20 02:16:43;;;;;;;50.58;32.90;;;;;;;0.07;100.00;98808.50;2042154;29;20266;-68
2022/04/20 02:18:10;;;;;;;48.70;33.42;;;;;;;0.08;100.00;98808.28;2049164;28;20203;-66
2022/04/20 02:19:35;;;;;;;48.60;33.15;;;;;;;0.14;100.00;98812.59;2049398;28;20293;-67
2022/04/20 02:20:48;;;;;;;52.63;33.65;;;;;;;0.14;100.00;98798.69;2066175;28;20671;-67
2022/04/20 02:21:50;;;;;;;51.47;33.67;;;;;;;0.15;100.00;98802.91;2058455;28;20260;-67
2022/04/20 02:22:53;;;;;;;54.70;34.78;;;;;;;0.15;100.00;98795.03;2066140;28;20270;-67
2022/04/20 02:23:56;;;;;;;59.15;34.42;;;;;;;0.16;100.00;98789.53;2074169;28;20203;-69
2022/04/20 02:24:59;;;;;;;57.63;35.92;;;;;;;0.17;100.00;98788.50;2074425;28;20203;-67
2022/04/20 02:26:00;;;;;;;53.38;34.65;;;;;;;0.16;100.00;98783.50;2066067;28;20196;-67
2022/04/20 02:27:02;;;;;;;56.57;34.67;;;;;;;0.17;100.00;98790.34;2058080;28;20197;-67
2022/04/20 02:28:03;;;;;;;46.28;32.03;;;;;;;0.16;100.00;98780.88;2058187;28;20197;-67
2022/04/20 02:29:06;;;;;;;54.90;34.40;;;;;;;0.16;100.00;98794.78;2058221;28;20204;-67
2022/04/20 02:30:12;;;;;;;50.05;33.50;;;;;;;0.15;100.00;98781.91;2065832;28;20200;-67
2022/04/20 02:31:12;;;;;;;54.40;35.22;;;;;;;0.13;100.00;98781.34;2058278;28;20668;-67
2022/04/20 02:32:14;;;;;;;53.73;34.60;;;;;;;0.10;100.00;98773.97;2050364;28;20564;-67
2022/04/20 02:33:15;;;;;;;55.40;33.97;;;;;;;0.06;100.00;98781.50;2050090;28;20561;-67
2022/04/20 02:34:17;;;;;;;55.63;36.47;;;;;;;0.05;100.00;98779.09;2058001;28;20194;-66
2022/04/20 02:35:18;;;;;;;57.92;35.72;;;;;;;-0.02;100.00;98780.03;2058580;28;20228;-67
2022/04/20 02:36:20;;;;;;;57.70;37.10;;;;;;;-0.01;100.00;98780.81;2057627;28;20222;-67
2022/04/20 02:37:22;;;;;;;58.13;36.08;;;;;;;-0.05;100.00;98780.50;2058093;28;20676;-67
2022/04/20 02:38:23;;;;;;;56.90;35.65;;;;;;;-0.09;100.00;98774.16;2057939;28;20206;-67
2022/04/20 02:39:26;;;;;;;59.40;36.70;;;;;;;-0.09;100.00;98781.19;2050010;29;20238;-67
2022/04/20 02:40:26;;;;;;;55.15;36.58;;;;;;;-0.13;100.00;98774.84;2057957;28;20708;-67
2022/04/20 02:41:29;;;;;;;62.22;37.72;;;;;;;-0.14;100.00;98781.91;2050001;28;20608;-67
2022/04/20 02:42:30;;;;;;;57.53;36.78;;;;;;;-0.17;100.00;98778.97;2049928;28;20329;-67
2022/04/20 02:43:34;;;;;;;59.45;37.88;;;;;;;-0.19;100.00;98779.19;2049944;28;20202;-67
2022/04/20 02:44:37;;;;;;;61.55;38.15;;;;;;;-0.22;100.00;98782.28;2058209;28;20194;-67
2022/04/20 02:45:39;;;;;;;56.90;37.38;;;;;;;-0.25;100.00;98785.38;2057911;28;20580;-67
2022/04/20 02:46:42;;;;;;;66.70;39.35;;;;;;;-0.29;100.00;98776.38;2050239;28;20206;-66
2022/04/20 02:47:44;;;;;;;65.07;40.30;;;;;;;-0.30;100.00;98785.25;2058058;28;20194;-67
2022/04/20 02:48:45;;;;;;;68.53;39.22;;;;;;;-0.33;100.00;98785.72;2057938;28;20683;-67
2022/04/20 02:49:49;;;;;;;63.22;38.97;;;;;;;-0.35;100.00;98782.53;2049977;28;20190;-67
2022/04/20 02:50:51;;;;;;;65.90;40.53;;;;;;;-0.35;100.00;98785.16;2050310;28;20307;-68
2022/04/20 02:51:53;;;;;;;68.55;40.05;;;;;;;-0.39;100.00;98784.81;2049581;28;20608;-67
2022/04/20 02:52:54;;;;;;;67.47;41.00;;;;;;;-0.39;100.00;98784.03;2049933;28;20260;-67
2022/04/20 02:53:56;;;;;;;64.47;39.88;;;;;;;-0.38;100.00;98793.47;2049973;28;20198;-67
2022/04/20 02:54:59;;;;;;;68.65;43.75;;;;;;;-0.39;100.00;98789.28;2050107;28;20260;-67
2022/04/20 02:56:01;;;;;;;71.80;42.05;;;;;;;-0.43;100.00;98788.94;2050304;28;20257;-67
2022/04/20 02:57:06;;;;;;;70.25;40.58;;;;;;;-0.44;100.00;98786.53;2057928;28;20190;-67
2022/04/20 02:58:09;;;;;;;83.95;44.80;;;;;;;-0.46;100.00;98791.22;2057874;28;20285;-67
2022/04/20 02:59:11;;;;;;;73.82;45.45;;;;;;;-0.50;100.00;98790.09;2050203;28;20233;-67
2022/04/20 03:00:15;;;;;;;84.13;46.13;;;;;;;-0.48;100.00;98785.41;2057945;28;20193;-67
2022/04/20 03:01:26;;;;;;;77.32;44.85;;;;;;;-0.49;100.00;98794.31;2058050;28;20201;-67
2022/04/20 03:02:31;;;;;;;85.72;47.00;;;;;;;-0.52;100.00;98794.75;2050290;28;20225;-67
2022/04/20 03:03:34;;;;;;;84.85;45.78;;;;;;;-0.54;100.00;98791.56;2050490;28;20239;-67
2022/04/20 03:04:54;;;;;;;86.88;47.60;;;;;;;-0.58;100.00;98788.63;2052381;28;20194;-67
2022/04/20 03:05:56;;;;;;;87.03;48.78;;;;;;;-0.62;100.00;98796.13;2049719;28;20201;-67
2022/04/20 03:06:59;;;;;;;90.53;48.00;;;;;;;-0.63;100.00;98797.16;2049970;28;20238;-67
2022/04/20 03:08:24;;;;;;;84.88;47.80;;;;;;;-0.66;100.00;98794.22;2055340;28;20255;-67
2022/04/20 03:09:25;;;;;;;72.78;45.40;;;;;;;-0.68;100.00;98798.91;2057730;28;20194;-67
2022/04/20 03:10:29;;;;;;;81.40;46.43;;;;;;;-0.74;100.00;98803.22;2049771;28;20205;-67
2022/04/20 03:11:33;;;;;;;78.85;48.22;;;;;;;-0.74;100.00;98795.34;2049989;28;20198;-67
2022/04/20 03:12:38;;;;;;;83.38;47.53;;;;;;;-0.76;100.00;98794.00;2057823;28;20225;-68
2022/04/20 03:13:41;;;;;;;83.15;47.80;;;;;;;-0.77;100.00;98801.06;2057864;28;20558;-67
2022/04/20 03:14:43;;;;;;;83.13;47.37;;;;;;;-0.78;100.00;98790.78;2049757;29;20212;-67
2022/04/20 03:15:44;;;;;;;83.55;47.03;;;;;;;-0.81;100.00;98786.81;2049699;28;20213;-66
2022/04/20 03:16:46;;;;;;;78.23;46.80;;;;;;;-0.80;100.00;98788.41;2049737;29;20681;-67
2022/04/20 03:17:50;;;;;;;83.18;46.55;;;;;;;-0.83;100.00;98795.94;2057716;28;20213;-67
2022/04/20 03:18:55;;;;;;;76.32;47.33;;;;;;;-0.87;100.00;98787.72;2050151;28;20210;-67
2022/04/20 03:19:59;;;;;;;82.30;47.33;;;;;;;-0.87;100.00;98793.78;2050429;28;20669;-67
2022/04/20 03:21:01;;;;;;;84.10;48.03;;;;;;;-0.89;100.00;98789.78;2049011;28;20684;-67
2022/04/20 03:22:02;;;;;;;80.57;48.15;;;;;;;-0.89;100.00;98790.56;2050091;28;20218;-67
2022/04/20 03:23:05;;;;;;;85.07;48.43;;;;;;;-0.88;100.00;98786.13;2049672;28;20202;-67
2022/04/20 03:24:06;;;;;;;85.05;49.28;;;;;;;-0.91;100.00;98786.59;2049926;28;20246;-66
2022/04/20 03:25:45;;;;;;;86.95;47.45;;;;;;;-0.92;100.00;98792.84;2053885;28;20194;-67
2022/04/20 03:27:07;;;;;;;89.30;48.25;;;;;;;-0.92;100.00;98785.00;2041431;29;20257;-67
2022/04/20 03:28:14;;;;;;;85.00;47.88;;;;;;;-0.95;100.00;98782.84;2055466;28;20206;-67
2022/04/20 03:29:16;;;;;;;85.43;48.20;;;;;;;-0.94;100.00;98789.69;2049638;28;20225;-67
2022/04/20 03:30:16;;;;;;;87.80;49.92;;;;;;;-0.96;100.00;98784.63;2061284;28;20230;-67
2022/04/20 03:31:18;;;;;;;81.43;46.60;;;;;;;-0.94;100.00;98784.44;2056423;28;20296;-66
2022/04/20 03:32:21;;;;;;;83.35;48.85;;;;;;;-0.95;100.00;98790.72;2057734;28;20201;-67
2022/04/20 03:33:26;;;;;;;83.43;49.00;;;;;;;-0.97;100.00;98788.28;2057833;28;20198;-67
2022/04/20 03:34:28;;;;;;;86.82;50.10;;;;;;;-0.99;100.00;98784.31;2057902;28;20558;-67
2022/04/20 03:35:30;;;;;;;82.05;47.20;;;;;;;-0.99;100.00;98789.56;2057805;28;20594;-68
2022/04/20 03:36:32;;;;;;;84.75;49.70;;;;;;;-1.01;100.00;98786.38;2057261;28;20686;-66
2022/04/20 03:37:33;;;;;;;83.43;49.67;;;;;;;-1.03;100.00;98783.97;2065667;28;20276;-66
2022/04/20 03:38:37;;;;;;;90.15;50.40;;;;;;;-1.02;100.00;98787.41;2065575;28;20197;-67
2022/04/20 03:39:41;;;;;;;84.38;49.00;;;;;;;-0.99;100.00;98786.94;2057139;28;20313;-67
2022/04/20 03:40:45;;;;;;;86.45;49.80;;;;;;;-1.01;100.00;98778.50;2066233;28;20200;-67
2022/04/20 03:41:45;;;;;;;94.88;49.30;;;;;;;-0.99;100.00;98784.31;2074528;28;20231;-66
2022/04/20 03:42:47;;;;;;;87.30;50.20;;;;;;;-0.97;100.00;98782.25;2074403;28;20717;-67
2022/04/20 03:43:48;;;;;;;93.35;49.80;;;;;;;-0.98;100.00;98783.28;2064811;28;20205;-67
2022/04/20 03:44:51;;;;;;;87.53;50.40;;;;;;;-0.96;100.00;98789.09;2057457;28;20217;-67
2022/04/20 03:45:53;;;;;;;80.28;47.83;;;;;;;-0.96;100.00;98789.09;2057420;28;20676;-67
2022/04/20 03:46:55;;;;;;;88.22;49.97;;;;;;;-0.97;100.00;98784.88;2057406;28;20579;-67
2022/04/20 03:47:59;;;;;;;80.43;49.13;;;;;;;-0.99;100.00;98794.78;2065891;28;20283;-67
2022/04/20 03:49:01;;;;;;;85.15;48.08;;;;;;;-1.00;100.00;98788.75;2065469;28;20197;-67
2022/04/20 03:50:02;;;;;;;87.80;49.80;;;;;;;-1.01;100.00;98783.75;2065589;28;20232;-67
2022/04/20 03:51:04;;;;;;;88.53;50.80;;;;;;;-1.03;100.00;98791.03;2064974;28;20675;-67
2022/04/20 03:52:07;;;;;;;85.22;50.28;;;;;;;-1.02;100.00;98790.81;2065646;28;20243;-67
2022/04/20 03:53:10;;;;;;;88.32;50.72;;;;;;;-1.04;100.00;98787.63;2057550;28;20205;-67
2022/04/20 03:54:11;;;;;;;84.82;49.47;;;;;;;-1.04;100.00;98787.63;2057662;28;20683;-67
2022/04/20 03:55:14;;;;;;;82.82;50.13;;;;;;;-1.04;100.00;98786.81;2065621;28;20283;-67
2022/04/20 03:56:17;;;;;;;91.15;50.05;;;;;;;-1.02;100.00;98784.78;2065457;28;20691;-67
2022/04/20 03:57:19;;;;;;;82.93;50.10;;;;;;;-1.01;100.00;98792.41;2057423;28;20235;-67
2022/04/20 03:58:21;;;;;;;92.22;50.33;;;;;;;-1.01;100.00;98794.22;2057494;28;20197;-67
2022/04/20 03:59:23;;;;;;;94.30;52.17;;;;;;;-0.97;100.00;98790.13;2057420;28;20692;-67
2022/04/20 04:00:25;;;;;;;86.53;50.67;;;;;;;-1.00;100.00;98786.13;2057492;28;20675;-67
2022/04/20 04:01:28;;;;;;;85.03;50.95;;;;;;;-1.01;100.00;98792.41;2057751;28;20197;-67
2022/04/20 04:02:30;;;;;;;85.40;50.73;;;;;;;-0.97;100.00;98795.34;2057263;28;20222;-67
2022/04/20 04:03:45;;;;;;;89.45;50.15;;;;;;;-0.98;100.00;98793.75;2059275;28;20293;-67
2022/04/20 04:04:51;;;;;;;89.07;51.08;;;;;;;-0.97;100.00;98800.59;2058126;28;20608;-67
2022/04/20 04:06:01;;;;;;;90.20;50.47;;;;;;;-0.97;100.00;98803.19;2057937;28;20192;-67
2022/04/20 04:07:02;;;;;;;84.45;50.83;;;;;;;-0.99;100.00;98800.81;2057383;28;20189;-67
2022/04/20 04:08:07;;;;;;;83.68;49.45;;;;;;;-0.97;100.00;98806.63;2065253;28;20193;-68
2022/04/20 04:09:09;;;;;;;86.45;49.75;;;;;;;-0.94;100.00;98808.00;2057892;28;20198;-67
2022/04/20 04:10:11;;;;;;;83.75;51.05;;;;;;;-0.95;100.00;98801.19;2057410;28;20289;-67
2022/04/20 04:11:13;;;;;;;85.45;50.65;;;;;;;-0.93;100.00;98804.34;2065287;28;20193;-68
2022/04/20 04:12:22;;;;;;;87.45;50.05;;;;;;;-0.91;100.00;98808.34;2057447;28;20198;-67
2022/04/20 04:13:26;;;;;;;84.88;50.47;;;;;;;-0.87;100.00;98811.28;2058465;28;20280;-68
2022/04/20 04:14:32;;;;;;;77.40;48.50;;;;;;;-0.87;100.00;98806.88;2057853;28;20204;-67
2022/04/20 04:15:35;;;;;;;86.53;49.92;;;;;;;-0.84;100.00;98816.09;2057010;28;20212;-67
2022/04/20 04:16:36;;;;;;;82.80;49.03;;;;;;;-0.82;100.00;98815.84;2057471;28;20735;-67
2022/04/20 04:17:39;;;;;;;78.15;48.97;;;;;;;-0.78;100.00;98823.03;2057425;28;20198;-67
2022/04/20 04:18:39;;;;;;;85.25;49.80;;;;;;;-0.78;100.00;98811.75;2057350;28;20198;-67
2022/04/20 04:19:46;;;;;;;85.43;50.30;;;;;;;-0.77;100.00;98818.59;2065852;28;20185;-67
2022/04/20 04:20:50;;;;;;;85.93;50.15;;;;;;;-0.78;100.00;98817.81;2065268;28;20205;-67
2022/04/20 04:21:53;;;;;;;81.32;48.40;;;;;;;-0.76;100.00;98814.94;2064840;28;20233;-66
2022/04/20 04:22:56;;;;;;;80.97;50.80;;;;;;;-0.71;100.00;98820.28;2057350;28;20214;-67
2022/04/20 04:25:33;;;;;;;89.18;49.78;;;;;;;-0.69;100.00;98821.66;2059683;28;20205;-67
2022/04/20 04:26:34;;;;;;;91.18;51.47;;;;;;;-0.67;100.00;98819.63;2065329;28;20208;-67
2022/04/20 04:27:38;;;;;;;85.28;50.42;;;;;;;-0.64;100.00;98827.00;2064780;28;20209;-67
2022/04/20 04:28:40;;;;;;;87.85;51.38;;;;;;;-0.60;100.00;98827.38;2057386;28;20224;-67
2022/04/20 04:29:42;;;;;;;88.60;51.15;;;;;;;-0.60;100.00;98822.13;2057347;28;20664;-67
2022/04/20 04:30:44;;;;;;;100.82;52.90;;;;;;;-0.55;100.00;98824.03;2057381;28;20261;-67
2022/04/20 04:31:46;;;;;;;85.73;52.13;;;;;;;-0.53;100.00;98829.84;2057249;28;20201;-67
2022/04/20 04:32:48;;;;;;;91.55;51.33;;;;;;;-0.50;100.00;98830.19;2057488;28;20487;-67
2022/04/20 04:33:50;;;;;;;94.47;54.60;;;;;;;-0.49;100.00;98828.38;2065220;28;20679;-67
2022/04/20 04:34:54;;;;;;;87.40;52.00;;;;;;;-0.45;100.00;98824.25;2073148;28;20724;-67
2022/04/20 04:35:54;;;;;;;86.18;51.38;;;;;;;-0.41;100.00;98828.81;2064707;28;20566;-67
2022/04/20 04:36:56;;;;;;;88.17;53.23;;;;;;;-0.37;100.00;98826.53;2065144;28;20197;-67
2022/04/20 04:37:59;;;;;;;92.45;53.72;;;;;;;-0.36;100.00;98822.88;2057239;28;20464;-67
2022/04/20 04:39:03;;;;;;;93.63;55.58;;;;;;;-0.33;100.00;98820.59;2057646;28;20201;-67
2022/04/20 04:40:09;;;;;;;95.85;56.58;;;;;;;-0.30;100.00;98824.56;2057584;28;20232;-67
2022/04/20 04:41:10;;;;;;;98.45;54.70;;;;;;;-0.21;100.00;98828.44;2057268;28;20197;-67
2022/04/20 04:42:13;;;;;;;96.80;56.10;;;;;;;-0.20;100.00;98829.22;2056942;28;20186;-67
2022/04/20 04:43:16;;;;;;;95.25;57.92;;;;;;;-0.20;100.00;98826.59;2057243;28;20229;-67
2022/04/20 04:44:21;;;;;;;97.85;57.75;;;;;;;-0.20;100.00;98819.53;2057455;28;20196;-67
2022/04/20 04:48:39;;;;;;;99.93;58.15;;;;;;;-0.10;100.00;98821.56;2061166;28;20196;-67
2022/04/20 04:49:44;;;;;;;103.75;59.25;;;;;;;-0.09;100.00;98821.34;2059661;28;20624;-67
2022/04/20 04:50:46;;;;;;;108.53;60.85;;;;;;;-0.05;100.00;98819.06;2057392;28;20209;-66
2022/04/20 04:51:48;;;;;;;107.03;59.90;;;;;;;0.01;100.00;98828.63;2056860;28;20240;-67
2022/04/20 04:52:53;;;;;;;117.07;63.05;;;;;;;0.04;100.00;98830.75;2057458;28;20221;-67
2022/04/20 04:53:54;;;;;;;117.55;62.53;;;;;;;0.06;100.00;98823.44;2057331;28;20201;-67
2022/04/20 04:55:08;;;;;;;107.18;61.38;;;;;;;0.09;100.00;98820.38;2058485;28;20236;-67
2022/04/20 04:56:12;;;;;;;110.32;61.47;;;;;;;0.13;100.00;98828.56;2057593;28;20205;-66
2022/04/20 04:57:21;;;;;;;111.18;63.58;;;;;;;0.18;100.00;98826.06;2065108;28;20618;-67
2022/04/20 04:58:23;;;;;;;114.13;63.85;;;;;;;0.22;100.00;98821.91;2057153;28;20240;-67
2022/04/20 04:59:26;;;;;;;118.13;63.90;;;;;;;0.28;100.00;98823.63;2065128;28;20200;-67
2022/04/20 05:00:29;;;;;;;124.35;66.78;;;;;;;0.34;100.00;98825.28;2057413;28;20198;-67
2022/04/20 05:01:44;;;;;;;120.75;64.25;;;;;;;0.40;100.00;98826.97;2058882;28;20193;-67
2022/04/20 05:02:54;;;;;;;111.78;62.05;;;;;;;0.42;100.00;98817.03;2058053;28;20225;-67
2022/04/20 05:03:55;;;;;;;111.32;63.58;;;;;;;0.52;100.00;98821.66;2057466;28;20227;-67
2022/04/20 05:04:58;;;;;;;113.25;63.42;;;;;;;0.57;100.00;98819.94;2057296;28;20245;-67
2022/04/20 05:05:59;;;;;;;120.10;66.65;;;;;;;0.65;100.00;98820.56;2064502;28;20300;-68
2022/04/20 05:07:23;;;;;;;122.32;66.50;;;;;;;0.73;100.00;98822.81;2068257;28;20200;-67
2022/04/20 05:08:40;;;;;;;116.00;62.97;;;;;;;0.82;100.00;98819.56;2065086;28;20204;-67
2022/04/20 05:09:45;;;;;;;126.45;64.63;;;;;;;0.90;100.00;98823.63;2065555;28;20686;-67
2022/04/20 05:10:46;;;;;;;124.47;67.63;;;;;;;0.98;100.00;98820.59;2073455;28;20204;-67